Time;durP1;ratioP1;P1;durP2;ratioP2;P2;SDS_P1;SDS_P2;PMS_P1;PMS_P2;Temp;Humidity;BMP_temperature;BMP_pressure;BME280_temperature;BME280_humidity;BME280_pressure;Samples;Min_cycle;Max_cycle;Signal;HPM_P1;HPM_P2
2023/03/03 00:00:56;;;;;;;33.33;13.75;;;;;;;;;;5052780;28;20041;-61
2023/03/03 00:03:24;;;;;;;30.48;12.98;;;;;;;;;;5045287;28;20049;-61
2023/03/03 00:05:50;;;;;;;33.55;14.02;;;;;;;;;;5050181;28;20036;-60
2023/03/03 00:08:17;;;;;;;31.27;13.63;;;;;;;;;;5033243;28;20026;-60
2023/03/03 00:10:43;;;;;;;29.67;14.13;;;;;;;;;;5032660;28;20140;-60
2023/03/03 00:13:15;;;;;;;30.67;14.73;;;;;;;;;;5046738;28;20044;-60
2023/03/03 00:15:40;;;;;;;32.95;14.38;;;;;;;;;;5049427;28;20029;-61
2023/03/03 00:18:29;;;;;;;32.83;14.30;;;;;;;;;;5047068;28;20493;-59
2023/03/03 00:20:57;;;;;;;29.38;13.40;;;;;;;;;;5044731;28;20031;-60
2023/03/03 00:23:25;;;;;;;31.90;14.43;;;;;;;;;;5047309;28;20071;-60
2023/03/03 00:25:52;;;;;;;32.75;13.93;;;;;;;;;;5039414;28;20033;-58
2023/03/03 00:28:26;;;;;;;31.67;13.38;;;;;;;;;;5045404;28;20394;-58
2023/03/03 00:30:53;;;;;;;35.33;15.30;;;;;;;;;;5042197;28;20108;-60
2023/03/03 00:33:31;;;;;;;32.75;14.63;;;;;;;;;;5040676;28;20037;-60
2023/03/03 00:36:05;;;;;;;32.15;13.77;;;;;;;;;;5041493;28;20036;-59
2023/03/03 00:38:34;;;;;;;29.65;13.98;;;;;;;;;;5036153;28;20025;-61
2023/03/03 00:41:00;;;;;;;31.27;13.40;;;;;;;;;;5049652;28;20025;-59
2023/03/03 00:43:34;;;;;;;30.77;13.05;;;;;;;;;;5050587;28;20056;-61
2023/03/03 00:46:00;;;;;;;32.13;13.85;;;;;;;;;;5051279;28;20029;-61
2023/03/03 00:48:26;;;;;;;28.98;13.35;;;;;;;;;;5051884;28;20033;-60
2023/03/03 00:51:14;;;;;;;29.60;12.45;;;;;;;;;;5062932;28;20041;-60
2023/03/03 00:53:39;;;;;;;29.13;12.90;;;;;;;;;;5041253;28;20135;-60
2023/03/03 00:56:05;;;;;;;29.00;13.00;;;;;;;;;;5050013;28;20037;-61
2023/03/03 00:58:30;;;;;;;30.00;12.20;;;;;;;;;;5048181;28;20133;-61
2023/03/03 01:00:57;;;;;;;27.05;12.55;;;;;;;;;;5046302;28;20354;-60
2023/03/03 01:03:24;;;;;;;31.50;12.70;;;;;;;;;;5038763;28;20160;-59
2023/03/03 01:05:50;;;;;;;26.17;12.07;;;;;;;;;;5048786;28;20033;-59
2023/03/03 01:08:16;;;;;;;27.25;12.32;;;;;;;;;;5031996;28;20025;-60
2023/03/03 01:10:52;;;;;;;26.15;11.82;;;;;;;;;;5051696;28;20037;-61
2023/03/03 01:13:21;;;;;;;27.23;11.73;;;;;;;;;;5050465;28;20448;-59
2023/03/03 01:15:46;;;;;;;28.08;12.50;;;;;;;;;;5039033;28;20044;-60
2023/03/03 01:18:12;;;;;;;31.55;11.90;;;;;;;;;;5046802;28;20180;-59
2023/03/03 01:20:38;;;;;;;29.05;12.48;;;;;;;;;;5036237;28;20036;-58
2023/03/03 01:23:04;;;;;;;30.13;13.02;;;;;;;;;;5040693;28;20083;-59
2023/03/03 01:25:30;;;;;;;30.88;13.02;;;;;;;;;;5033437;28;20030;-60
2023/03/03 01:27:55;;;;;;;30.40;12.82;;;;;;;;;;5035232;28;20036;-60
2023/03/03 01:30:21;;;;;;;29.05;12.35;;;;;;;;;;5048656;28;20029;-59
2023/03/03 01:32:46;;;;;;;29.85;12.95;;;;;;;;;;5050586;28;20357;-59
2023/03/03 01:35:12;;;;;;;31.75;13.63;;;;;;;;;;5066654;28;20043;-59
2023/03/03 01:37:37;;;;;;;30.27;13.00;;;;;;;;;;5049643;28;20505;-60
2023/03/03 01:40:06;;;;;;;32.58;12.95;;;;;;;;;;5050147;28;20104;-60
2023/03/03 01:42:31;;;;;;;28.98;13.07;;;;;;;;;;5037647;28;20029;-60
2023/03/03 01:45:13;;;;;;;29.08;12.18;;;;;;;;;;5038231;28;20045;-59
2023/03/03 01:47:49;;;;;;;29.48;11.95;;;;;;;;;;5044068;28;20116;-60
2023/03/03 01:50:40;;;;;;;28.90;12.52;;;;;;;;;;5049254;28;20510;-59
2023/03/03 01:53:10;;;;;;;;;;;;;;;;;;5048045;28;20097;-59
2023/03/03 01:55:39;;;;;;;27.70;11.63;;;;;;;;;;5030902;28;20008;-58
2023/03/03 01:58:10;;;;;;;32.45;12.52;;;;;;;;;;5045088;28;20401;-59
2023/03/03 02:00:38;;;;;;;29.95;13.48;;;;;;;;;;5031673;28;20393;-58
2023/03/03 02:03:03;;;;;;;29.58;12.15;;;;;;;;;;5048038;28;20098;-59
2023/03/03 02:05:29;;;;;;;30.50;13.25;;;;;;;;;;5048987;28;20033;-60
2023/03/03 02:07:54;;;;;;;30.75;12.63;;;;;;;;;;5048153;28;20389;-59
2023/03/03 02:10:21;;;;;;;34.00;12.77;;;;;;;;;;5049357;28;20041;-59
2023/03/03 02:12:52;;;;;;;33.20;13.65;;;;;;;;;;5020413;28;20526;-59
2023/03/03 02:15:32;;;;;;;30.20;12.95;;;;;;;;;;5045430;28;20474;-60
2023/03/03 02:18:11;;;;;;;29.45;12.50;;;;;;;;;;5037231;28;20045;-59
2023/03/03 02:21:04;;;;;;;31.63;13.57;;;;;;;;;;5045698;28;20028;-59
2023/03/03 02:23:41;;;;;;;32.85;13.20;;;;;;;;;;5048715;28;20081;-60
2023/03/03 02:26:15;;;;;;;29.50;12.43;;;;;;;;;;5045295;28;20104;-60
2023/03/03 02:28:41;;;;;;;36.75;14.35;;;;;;;;;;5046661;28;20029;-59
2023/03/03 02:31:11;;;;;;;31.90;13.98;;;;;;;;;;5040387;28;20133;-59
2023/03/03 02:33:38;;;;;;;34.17;13.73;;;;;;;;;;5034729;28;20041;-60
2023/03/03 02:36:04;;;;;;;30.38;12.77;;;;;;;;;;5031003;28;20064;-59
2023/03/03 02:38:41;;;;;;;27.58;11.63;;;;;;;;;;5044994;28;20473;-59
2023/03/03 02:41:24;;;;;;;25.45;11.50;;;;;;;;;;5051099;28;20025;-60
2023/03/03 02:43:58;;;;;;;26.88;11.15;;;;;;;;;;5045258;28;20231;-59
2023/03/03 02:46:24;;;;;;;27.40;11.15;;;;;;;;;;5050513;28;20065;-59
2023/03/03 02:48:50;;;;;;;30.38;11.52;;;;;;;;;;5031380;28;20040;-59
2023/03/03 02:51:15;;;;;;;31.23;12.57;;;;;;;;;;5050847;28;20428;-60
2023/03/03 02:53:40;;;;;;;29.63;12.32;;;;;;;;;;5051013;28;20040;-60
2023/03/03 02:56:08;;;;;;;27.85;12.00;;;;;;;;;;5053730;28;20025;-59
2023/03/03 02:58:34;;;;;;;29.63;12.38;;;;;;;;;;5049612;28;20453;-61
2023/03/03 03:00:59;;;;;;;28.85;12.20;;;;;;;;;;5053302;28;20060;-59
2023/03/03 03:03:25;;;;;;;29.05;12.45;;;;;;;;;;5052213;28;20072;-60
2023/03/03 03:05:50;;;;;;;28.13;12.05;;;;;;;;;;5018492;28;20041;-59
2023/03/03 03:08:16;;;;;;;32.53;12.93;;;;;;;;;;5048230;28;20060;-59
2023/03/03 03:10:41;;;;;;;28.33;12.43;;;;;;;;;;5016286;28;20037;-59
2023/03/03 03:13:06;;;;;;;29.90;12.35;;;;;;;;;;5052431;28;20045;-59
2023/03/03 03:15:34;;;;;;;28.65;12.05;;;;;;;;;;5032541;28;20037;-59
2023/03/03 03:17:59;;;;;;;31.13;12.25;;;;;;;;;;5052971;28;20061;-59
2023/03/03 03:20:25;;;;;;;30.83;12.63;;;;;;;;;;5049635;28;20430;-59
2023/03/03 03:22:50;;;;;;;31.63;13.00;;;;;;;;;;5031288;28;20056;-59
2023/03/03 03:25:16;;;;;;;31.88;12.43;;;;;;;;;;5045965;28;20036;-60
2023/03/03 03:27:41;;;;;;;29.13;12.70;;;;;;;;;;5037949;28;20030;-58
2023/03/03 03:30:07;;;;;;;31.17;11.48;;;;;;;;;;5039575;28;20112;-58
2023/03/03 03:32:33;;;;;;;28.80;12.05;;;;;;;;;;5026089;28;20040;-59
2023/03/03 03:34:58;;;;;;;28.10;12.43;;;;;;;;;;5037357;28;20104;-60
2023/03/03 03:37:23;;;;;;;28.60;12.02;;;;;;;;;;5052109;28;20075;-59
2023/03/03 03:39:49;;;;;;;31.17;12.40;;;;;;;;;;5053047;28;20033;-58
2023/03/03 03:42:14;;;;;;;29.13;12.10;;;;;;;;;;5029365;28;20087;-59
2023/03/03 03:44:40;;;;;;;25.98;11.95;;;;;;;;;;5067416;28;20033;-59
2023/03/03 03:47:05;;;;;;;32.53;12.98;;;;;;;;;;5052846;28;20108;-59
2023/03/03 03:49:30;;;;;;;28.38;11.90;;;;;;;;;;5052824;28;20029;-59
2023/03/03 03:51:56;;;;;;;31.30;12.85;;;;;;;;;;5049196;28;20116;-60
2023/03/03 03:54:22;;;;;;;32.75;13.38;;;;;;;;;;5036969;28;20446;-58
2023/03/03 03:56:47;;;;;;;29.88;12.93;;;;;;;;;;5051213;28;20037;-58
2023/03/03 03:59:13;;;;;;;35.58;13.63;;;;;;;;;;5053523;28;20032;-60
2023/03/03 04:01:38;;;;;;;31.92;12.95;;;;;;;;;;5035353;28;20478;-60
2023/03/03 04:04:03;;;;;;;36.78;13.60;;;;;;;;;;5048145;28;20045;-60
2023/03/03 04:06:29;;;;;;;34.28;13.65;;;;;;;;;;5050725;28;20376;-60
2023/03/03 04:08:56;;;;;;;36.67;13.85;;;;;;;;;;5049772;28;20408;-60
2023/03/03 04:11:21;;;;;;;37.28;14.20;;;;;;;;;;5050636;28;20115;-61
2023/03/03 04:13:47;;;;;;;37.00;13.77;;;;;;;;;;5025487;28;20512;-59
2023/03/03 04:16:12;;;;;;;36.28;13.75;;;;;;;;;;5051566;28;20584;-59
2023/03/03 04:18:37;;;;;;;37.30;13.40;;;;;;;;;;5051611;28;20422;-60
2023/03/03 04:21:03;;;;;;;37.78;13.68;;;;;;;;;;5051679;28;20071;-59
2023/03/03 04:23:28;;;;;;;38.78;14.50;;;;;;;;;;5040945;28;20112;-59
2023/03/03 04:25:54;;;;;;;45.22;14.10;;;;;;;;;;5047646;28;20033;-60
2023/03/03 04:28:20;;;;;;;37.78;13.55;;;;;;;;;;5042902;28;20052;-59
2023/03/03 04:30:46;;;;;;;42.50;14.40;;;;;;;;;;5033327;28;20132;-59
2023/03/03 04:33:11;;;;;;;46.42;14.70;;;;;;;;;;5042371;28;20548;-58
2023/03/03 04:35:36;;;;;;;43.65;14.20;;;;;;;;;;5020034;28;20033;-60
2023/03/03 04:38:02;;;;;;;41.30;14.75;;;;;;;;;;5050176;28;20033;-61
2023/03/03 04:40:27;;;;;;;42.88;14.57;;;;;;;;;;5035509;28;20044;-59
2023/03/03 04:42:53;;;;;;;39.17;13.73;;;;;;;;;;5050198;28;20496;-59
2023/03/03 04:45:18;;;;;;;45.35;14.40;;;;;;;;;;5049162;28;20061;-60
2023/03/03 04:47:43;;;;;;;44.22;14.80;;;;;;;;;;5033626;28;20109;-59
2023/03/03 04:50:10;;;;;;;44.83;15.20;;;;;;;;;;5031641;28;20033;-61
2023/03/03 04:52:35;;;;;;;41.08;15.10;;;;;;;;;;5018706;28;20116;-60
2023/03/03 04:55:01;;;;;;;41.85;14.35;;;;;;;;;;5039575;28;20638;-60
2023/03/03 04:57:26;;;;;;;42.28;14.48;;;;;;;;;;5032914;28;20083;-60
2023/03/03 04:59:52;;;;;;;40.70;14.98;;;;;;;;;;5044829;28;20033;-61
2023/03/03 05:02:18;;;;;;;44.22;14.95;;;;;;;;;;5021160;28;20095;-61
2023/03/03 05:04:44;;;;;;;42.35;14.18;;;;;;;;;;5021105;28;20045;-59
2023/03/03 05:07:09;;;;;;;39.15;14.52;;;;;;;;;;5017180;28;20034;-60
2023/03/03 05:09:35;;;;;;;36.63;14.15;;;;;;;;;;5020896;28;20068;-60
2023/03/03 05:12:00;;;;;;;43.17;15.02;;;;;;;;;;5045238;28;20359;-60
2023/03/03 05:14:26;;;;;;;44.67;15.30;;;;;;;;;;5045344;28;20056;-60
2023/03/03 05:16:52;;;;;;;45.50;14.98;;;;;;;;;;5041785;28;20041;-60
2023/03/03 05:19:17;;;;;;;38.53;13.68;;;;;;;;;;5052193;28;20358;-60
2023/03/03 05:21:43;;;;;;;38.55;13.93;;;;;;;;;;5050699;28;20040;-60
2023/03/03 05:24:13;;;;;;;42.40;14.05;;;;;;;;;;5048592;28;20037;-59
2023/03/03 05:26:39;;;;;;;41.73;14.37;;;;;;;;;;5044733;28;20029;-59
2023/03/03 05:29:06;;;;;;;40.75;14.13;;;;;;;;;;5033068;28;20274;-58
2023/03/03 05:31:31;;;;;;;45.33;14.88;;;;;;;;;;5031419;28;20035;-59
2023/03/03 05:33:57;;;;;;;41.15;15.35;;;;;;;;;;5031436;28;20104;-60
2023/03/03 05:36:22;;;;;;;41.80;14.63;;;;;;;;;;5031990;28;20443;-60
2023/03/03 05:38:48;;;;;;;45.45;15.60;;;;;;;;;;5037866;28;20369;-61
2023/03/03 05:41:13;;;;;;;41.90;14.23;;;;;;;;;;5050925;28;20099;-60
2023/03/03 05:43:39;;;;;;;48.25;14.32;;;;;;;;;;5051337;28;20045;-59
2023/03/03 05:46:04;;;;;;;44.70;14.98;;;;;;;;;;5030065;28;20563;-59
2023/03/03 05:48:30;;;;;;;41.42;14.77;;;;;;;;;;5050093;28;20536;-60
2023/03/03 05:50:59;;;;;;;44.60;14.15;;;;;;;;;;5049750;28;20111;-60
2023/03/03 05:53:28;;;;;;;45.10;15.05;;;;;;;;;;5043187;28;20021;-59
2023/03/03 05:55:54;;;;;;;47.88;15.15;;;;;;;;;;5032540;28;20466;-60
2023/03/03 05:58:20;;;;;;;44.58;15.20;;;;;;;;;;5034704;28;20034;-61
2023/03/03 06:00:45;;;;;;;45.13;14.32;;;;;;;;;;5030881;28;20052;-60
2023/03/03 06:03:11;;;;;;;40.50;13.70;;;;;;;;;;5031793;28;20053;-60
2023/03/03 06:05:36;;;;;;;42.00;13.95;;;;;;;;;;5032111;28;20029;-58
2023/03/03 06:08:01;;;;;;;41.83;14.63;;;;;;;;;;5030210;28;20116;-60
2023/03/03 06:10:27;;;;;;;44.08;15.43;;;;;;;;;;5031363;28;20045;-58
2023/03/03 06:12:53;;;;;;;42.20;14.23;;;;;;;;;;5030635;28;20060;-58
2023/03/03 06:15:20;;;;;;;38.30;14.35;;;;;;;;;;5049782;28;20021;-60
2023/03/03 06:17:45;;;;;;;39.58;13.48;;;;;;;;;;5032869;28;20032;-60
2023/03/03 06:20:11;;;;;;;40.45;14.27;;;;;;;;;;5047585;28;20029;-60
2023/03/03 06:22:36;;;;;;;45.22;14.95;;;;;;;;;;5044854;28;20037;-60
2023/03/03 06:25:02;;;;;;;42.13;13.93;;;;;;;;;;5049569;28;20033;-61
2023/03/03 06:27:27;;;;;;;41.80;15.15;;;;;;;;;;5053054;28;20040;-61
2023/03/03 06:29:53;;;;;;;39.88;13.98;;;;;;;;;;5058681;28;20024;-61
2023/03/03 06:32:18;;;;;;;39.58;14.63;;;;;;;;;;5048864;28;20540;-61
2023/03/03 06:34:44;;;;;;;40.78;14.60;;;;;;;;;;5041957;28;20033;-61
2023/03/03 06:37:09;;;;;;;42.72;14.07;;;;;;;;;;5047157;28;20029;-62
2023/03/03 06:39:35;;;;;;;40.17;13.73;;;;;;;;;;5040529;28;20096;-62
2023/03/03 06:42:00;;;;;;;40.28;14.40;;;;;;;;;;5050149;28;20022;-61
2023/03/03 06:44:26;;;;;;;37.22;13.88;;;;;;;;;;5046433;28;20385;-62
2023/03/03 06:46:52;;;;;;;39.30;13.80;;;;;;;;;;5047498;28;20052;-61
2023/03/03 06:49:17;;;;;;;42.47;14.68;;;;;;;;;;5054203;28;20131;-61
2023/03/03 06:51:45;;;;;;;42.90;13.63;;;;;;;;;;5053623;28;20033;-61
2023/03/03 06:54:13;;;;;;;39.33;13.30;;;;;;;;;;5037674;28;20025;-61
2023/03/03 06:56:39;;;;;;;41.60;14.43;;;;;;;;;;5046248;28;20036;-62
2023/03/03 06:59:19;;;;;;;45.30;14.40;;;;;;;;;;5054854;28;20029;-63
2023/03/03 07:01:46;;;;;;;46.42;14.02;;;;;;;;;;5039451;28;20028;-62
2023/03/03 07:04:29;;;;;;;47.17;15.25;;;;;;;;;;5048679;28;20061;-62
2023/03/03 07:06:57;;;;;;;41.90;14.30;;;;;;;;;;5047472;28;20060;-62
2023/03/03 07:09:28;;;;;;;45.47;14.95;;;;;;;;;;5050827;28;20098;-61
2023/03/03 07:12:21;;;;;;;41.90;13.98;;;;;;;;;;5052590;28;20069;-62
2023/03/03 07:14:54;;;;;;;42.40;14.00;;;;;;;;;;5027229;28;20493;-61
2023/03/03 07:17:22;;;;;;;40.55;13.38;;;;;;;;;;5047364;28;20022;-61
2023/03/03 07:19:48;;;;;;;43.42;13.90;;;;;;;;;;5053275;28;20036;-62
2023/03/03 07:22:20;;;;;;;37.50;13.02;;;;;;;;;;5043339;28;20086;-61
2023/03/03 07:24:49;;;;;;;38.22;13.13;;;;;;;;;;5050860;28;20036;-61
2023/03/03 07:27:26;;;;;;;39.47;13.77;;;;;;;;;;5053909;28;20060;-60
2023/03/03 07:29:54;;;;;;;40.90;12.63;;;;;;;;;;5036654;28;20029;-62
2023/03/03 07:32:38;;;;;;;40.15;13.50;;;;;;;;;;5043462;28;20029;-61
2023/03/03 07:35:30;;;;;;;37.30;13.40;;;;;;;;;;5041186;28;20041;-61
2023/03/03 07:37:55;;;;;;;38.38;13.32;;;;;;;;;;5026060;28;20064;-61
2023/03/03 07:40:33;;;;;;;35.58;12.35;;;;;;;;;;5037042;28;20057;-62
2023/03/03 07:42:58;;;;;;;37.80;12.38;;;;;;;;;;5047677;28;20049;-62
2023/03/03 07:45:31;;;;;;;39.22;12.57;;;;;;;;;;5050512;28;20045;-62
2023/03/03 07:48:11;;;;;;;33.58;12.35;;;;;;;;;;5046328;28;20025;-62
2023/03/03 07:50:39;;;;;;;37.17;12.07;;;;;;;;;;5053704;28;20086;-62
2023/03/03 07:53:13;;;;;;;33.90;12.63;;;;;;;;;;5052825;28;20045;-62
2023/03/03 07:55:39;;;;;;;35.35;12.25;;;;;;;;;;5046796;28;20040;-62
2023/03/03 07:58:11;;;;;;;40.78;13.38;;;;;;;;;;5053419;28;20111;-61
2023/03/03 08:00:55;;;;;;;37.03;13.48;;;;;;;;;;5053664;28;20036;-60
2023/03/03 08:03:21;;;;;;;34.00;12.00;;;;;;;;;;5053543;28;20052;-61
2023/03/03 08:05:47;;;;;;;35.70;12.55;;;;;;;;;;5039199;28;20075;-62
2023/03/03 08:08:35;;;;;;;39.85;13.38;;;;;;;;;;5053205;28;20068;-61
2023/03/03 08:11:03;;;;;;;34.97;12.70;;;;;;;;;;5052640;28;20075;-62
2023/03/03 08:13:28;;;;;;;35.13;12.77;;;;;;;;;;5050026;28;20126;-61
2023/03/03 08:16:14;;;;;;;34.97;12.00;;;;;;;;;;5033519;28;20033;-63
2023/03/03 08:18:47;;;;;;;38.50;13.32;;;;;;;;;;5023200;28;20040;-62
2023/03/03 08:21:24;;;;;;;40.13;13.20;;;;;;;;;;5051986;28;20171;-62
2023/03/03 08:23:50;;;;;;;45.42;13.50;;;;;;;;;;5049960;28;20043;-62
2023/03/03 08:26:17;;;;;;;37.85;12.82;;;;;;;;;;5051334;28;20028;-62
2023/03/03 08:28:43;;;;;;;36.38;12.02;;;;;;;;;;5052154;28;20032;-61
2023/03/03 08:31:09;;;;;;;36.47;13.05;;;;;;;;;;5051838;28;20462;-63
2023/03/03 08:33:35;;;;;;;35.70;12.07;;;;;;;;;;5052036;28;20032;-62
2023/03/03 08:36:01;;;;;;;35.22;12.15;;;;;;;;;;5051582;28;20104;-62
2023/03/03 08:38:26;;;;;;;32.53;11.55;;;;;;;;;;5066899;28;20115;-62
2023/03/03 08:40:51;;;;;;;26.75;9.65;;;;;;;;;;5054480;28;20037;-62
2023/03/03 08:43:20;;;;;;;25.45;9.77;;;;;;;;;;5050936;28;20102;-62
2023/03/03 08:45:48;;;;;;;26.85;10.10;;;;;;;;;;5048912;28;20041;-62
2023/03/03 08:48:14;;;;;;;25.67;9.63;;;;;;;;;;5051064;28;20029;-61
2023/03/03 08:50:40;;;;;;;27.08;9.02;;;;;;;;;;5042430;28;20029;-62
2023/03/03 08:53:06;;;;;;;24.90;8.85;;;;;;;;;;5050831;28;20040;-62
2023/03/03 08:55:32;;;;;;;23.08;9.00;;;;;;;;;;5029891;28;20041;-62
2023/03/03 08:57:57;;;;;;;27.15;9.30;;;;;;;;;;5033134;28;20095;-62
2023/03/03 09:00:23;;;;;;;21.92;9.07;;;;;;;;;;5046032;28;20112;-62
2023/03/03 09:02:50;;;;;;;23.73;9.38;;;;;;;;;;5050988;28;20129;-62
2023/03/03 09:05:17;;;;;;;23.50;8.55;;;;;;;;;;5051264;28;20162;-62
2023/03/03 09:07:43;;;;;;;26.77;9.43;;;;;;;;;;5051641;28;20033;-62
2023/03/03 09:10:13;;;;;;;25.55;8.80;;;;;;;;;;5048839;28;20465;-62
2023/03/03 09:12:41;;;;;;;26.67;9.18;;;;;;;;;;5050923;28;20033;-61
2023/03/03 09:15:15;;;;;;;26.52;9.10;;;;;;;;;;5051110;28;20033;-61
2023/03/03 09:17:42;;;;;;;24.67;8.80;;;;;;;;;;5051241;28;20033;-62
2023/03/03 09:20:36;;;;;;;25.30;9.13;;;;;;;;;;5045861;28;20083;-61
2023/03/03 09:23:34;;;;;;;26.70;9.40;;;;;;;;;;5041474;28;20036;-61
2023/03/03 09:26:27;;;;;;;27.00;9.20;;;;;;;;;;5046537;28;20048;-61
2023/03/03 09:29:07;;;;;;;27.77;9.30;;;;;;;;;;5050947;28;20096;-63
2023/03/03 09:31:41;;;;;;;22.60;8.98;;;;;;;;;;5049968;28;20039;-62
2023/03/03 09:34:35;;;;;;;29.85;10.23;;;;;;;;;;5047248;28;20037;-61
2023/03/03 09:37:13;;;;;;;22.98;8.85;;;;;;;;;;5035778;28;20037;-62
2023/03/03 09:39:39;;;;;;;29.70;10.25;;;;;;;;;;5043961;28;20481;-62
2023/03/03 09:42:33;;;;;;;25.92;9.90;;;;;;;;;;5047186;28;20071;-62
2023/03/03 09:45:11;;;;;;;23.25;8.65;;;;;;;;;;5030680;28;20099;-62
2023/03/03 09:47:46;;;;;;;22.05;8.60;;;;;;;;;;5042526;28;20048;-62
2023/03/03 09:50:23;;;;;;;20.00;8.95;;;;;;;;;;5049884;28;20025;-63
2023/03/03 09:53:14;;;;;;;22.40;8.23;;;;;;;;;;5036797;28;20127;-62
2023/03/03 09:55:46;;;;;;;;;;;;;;;;;;5051891;28;20496;-62
2023/03/03 09:58:45;;;;;;;20.85;7.50;;;;;;;;;;5045178;28;20007;-61
2023/03/03 10:01:38;;;;;;;18.45;7.60;;;;;;;;;;5036287;28;20036;-62
2023/03/03 10:04:04;;;;;;;22.67;7.97;;;;;;;;;;5050112;28;20136;-62
2023/03/03 10:06:39;;;;;;;22.90;7.72;;;;;;;;;;5033734;28;20100;-62
2023/03/03 10:09:27;;;;;;;25.00;8.63;;;;;;;;;;5049560;28;20388;-61
2023/03/03 10:12:12;;;;;;;19.75;8.15;;;;;;;;;;5043195;28;20086;-61
2023/03/03 10:14:46;;;;;;;20.17;7.78;;;;;;;;;;5050101;28;20040;-62
2023/03/03 10:17:41;;;;;;;21.70;8.25;;;;;;;;;;5050134;28;20071;-62
2023/03/03 10:20:36;;;;;;;22.38;8.07;;;;;;;;;;5038371;28;20347;-61
2023/03/03 10:23:19;;;;;;;21.70;8.27;;;;;;;;;;5043806;28;20119;-64
2023/03/03 10:26:23;;;;;;;21.02;8.75;;;;;;;;;;5049736;28;20036;-61
2023/03/03 10:28:57;;;;;;;21.35;8.10;;;;;;;;;;5032368;28;20104;-62
2023/03/03 10:31:35;;;;;;;21.88;8.10;;;;;;;;;;5040684;28;20119;-62
2023/03/03 10:34:06;;;;;;;23.80;8.90;;;;;;;;;;5048904;28;20393;-61
2023/03/03 10:36:51;;;;;;;26.40;9.38;;;;;;;;;;5051291;28;20040;-63
2023/03/03 10:39:43;;;;;;;27.83;10.13;;;;;;;;;;5046631;28;20469;-62
2023/03/03 10:42:45;;;;;;;22.17;8.90;;;;;;;;;;5049896;28;20037;-62
2023/03/03 10:45:33;;;;;;;27.90;9.27;;;;;;;;;;5029996;28;20036;-61
2023/03/03 10:48:10;;;;;;;20.25;8.13;;;;;;;;;;5041866;28;20478;-62
2023/03/03 10:50:50;;;;;;;21.35;8.27;;;;;;;;;;5049180;28;20037;-61
2023/03/03 10:53:38;;;;;;;22.75;8.25;;;;;;;;;;5035923;28;20029;-61
2023/03/03 10:56:34;;;;;;;25.38;9.35;;;;;;;;;;5048488;28;21201;-62
2023/03/03 10:59:22;;;;;;;21.80;8.90;;;;;;;;;;5045354;28;20102;-62
2023/03/03 11:01:58;;;;;;;20.48;8.75;;;;;;;;;;5038441;28;20033;-61
2023/03/03 11:04:47;;;;;;;20.70;8.32;;;;;;;;;;5042635;28;20493;-61
2023/03/03 11:07:33;;;;;;;25.30;8.90;;;;;;;;;;5033516;28;20025;-61
2023/03/03 11:10:17;;;;;;;24.23;9.07;;;;;;;;;;5048583;28;20037;-61
2023/03/03 11:13:10;;;;;;;24.10;9.10;;;;;;;;;;5051328;28;20108;-61
2023/03/03 11:15:44;;;;;;;25.88;9.88;;;;;;;;;;5049441;28;20469;-61
2023/03/03 11:18:24;;;;;;;25.08;9.48;;;;;;;;;;5046747;28;20029;-61
2023/03/03 11:21:11;;;;;;;24.55;8.93;;;;;;;;;;5050010;28;20044;-61
2023/03/03 11:24:00;;;;;;;23.85;9.40;;;;;;;;;;5059994;28;20086;-61
2023/03/03 11:26:27;;;;;;;23.30;9.48;;;;;;;;;;5049121;28;20078;-63
2023/03/03 11:28:59;;;;;;;19.52;8.57;;;;;;;;;;5044343;28;20073;-60
2023/03/03 11:31:52;;;;;;;21.92;9.35;;;;;;;;;;5041355;28;20033;-61
2023/03/03 11:34:17;;;;;;;23.42;9.68;;;;;;;;;;5052781;28;20033;-62
2023/03/03 11:36:50;;;;;;;25.35;9.13;;;;;;;;;;5053291;28;20470;-61
2023/03/03 11:39:21;;;;;;;22.27;9.35;;;;;;;;;;5052068;28;20051;-61
2023/03/03 11:41:59;;;;;;;24.45;9.10;;;;;;;;;;5052551;28;20056;-61
2023/03/03 11:44:37;;;;;;;22.73;9.25;;;;;;;;;;5052990;28;20507;-61
2023/03/03 11:47:15;;;;;;;22.65;8.77;;;;;;;;;;5050195;28;20033;-61
2023/03/03 11:49:58;;;;;;;23.10;9.18;;;;;;;;;;5046735;28;20029;-61
2023/03/03 11:52:42;;;;;;;22.13;9.05;;;;;;;;;;5049229;28;20025;-61
2023/03/03 11:55:31;;;;;;;26.25;9.55;;;;;;;;;;5036162;28;20034;-61
2023/03/03 11:58:30;;;;;;;22.02;7.95;;;;;;;;;;5053633;28;20029;-62
2023/03/03 12:01:06;;;;;;;21.02;8.48;;;;;;;;;;5052241;28;20385;-62
2023/03/03 12:03:46;;;;;;;20.83;8.32;;;;;;;;;;5050735;28;20045;-62
2023/03/03 12:06:22;;;;;;;21.17;8.90;;;;;;;;;;5041603;28;20052;-63
2023/03/03 12:09:27;;;;;;;22.58;8.27;;;;;;;;;;5052233;28;20025;-61
2023/03/03 12:12:06;;;;;;;20.58;9.00;;;;;;;;;;5042016;28;20486;-62
2023/03/03 12:15:02;;;;;;;21.45;8.75;;;;;;;;;;5051729;28;20367;-63
2023/03/03 12:17:46;;;;;;;21.98;8.70;;;;;;;;;;5043686;28;20052;-62
2023/03/03 12:20:24;;;;;;;22.27;9.32;;;;;;;;;;5034266;28;20045;-62
2023/03/03 12:23:17;;;;;;;21.20;9.07;;;;;;;;;;5046153;28;20041;-62
2023/03/03 12:25:46;;;;;;;20.80;8.45;;;;;;;;;;5031341;28;20029;-61
2023/03/03 12:28:22;;;;;;;18.40;7.70;;;;;;;;;;5039794;28;20466;-62
2023/03/03 12:30:58;;;;;;;16.75;7.50;;;;;;;;;;5042656;28;20374;-63
2023/03/03 12:33:31;;;;;;;22.70;7.38;;;;;;;;;;5048559;28;20060;-62
2023/03/03 12:36:04;;;;;;;17.52;7.18;;;;;;;;;;5032857;28;20037;-62
2023/03/03 12:38:50;;;;;;;17.63;6.72;;;;;;;;;;5051993;28;20051;-62
2023/03/03 12:41:19;;;;;;;18.80;7.43;;;;;;;;;;5048544;28;20068;-61
2023/03/03 12:44:21;;;;;;;20.83;7.82;;;;;;;;;;5677608;22;20140;-64
2023/03/03 12:46:59;;;;;;;21.92;8.93;;;;;;;;;;5023283;28;20052;-63
2023/03/03 12:49:53;;;;;;;18.25;7.90;;;;;;;;;;5028653;28;20030;-64
2023/03/03 12:52:35;;;;;;;16.38;7.20;;;;;;;;;;4981362;28;20061;-65
2023/03/03 12:55:15;;;;;;;17.65;7.43;;;;;;;;;;5029701;28;20404;-66
2023/03/03 12:58:07;;;;;;;15.52;7.18;;;;;;;;;;5032127;28;20037;-66
2023/03/03 13:00:56;;;;;;;17.27;7.57;;;;;;;;;;5031038;28;20041;-65
2023/03/03 13:03:37;;;;;;;19.70;7.38;;;;;;;;;;5029480;28;20043;-64
2023/03/03 13:06:34;;;;;;;18.17;8.02;;;;;;;;;;5023797;28;20029;-66
2023/03/03 13:09:04;;;;;;;17.52;8.25;;;;;;;;;;5030757;28;20069;-64
2023/03/03 13:11:39;;;;;;;17.45;7.97;;;;;;;;;;5031601;28;20393;-65
2023/03/03 13:14:21;;;;;;;16.90;8.02;;;;;;;;;;5023281;28;20083;-66
2023/03/03 13:17:27;;;;;;;15.88;7.53;;;;;;;;;;5031341;28;20118;-65
2023/03/03 13:19:59;;;;;;;16.30;8.02;;;;;;;;;;5005252;28;20509;-68
2023/03/03 13:22:38;;;;;;;16.10;7.43;;;;;;;;;;5030415;28;20033;-68
2023/03/03 13:25:32;;;;;;;16.95;7.68;;;;;;;;;;5028723;28;20052;-66
2023/03/03 13:28:39;;;;;;;17.45;8.05;;;;;;;;;;5031787;28;20037;-68
2023/03/03 13:31:15;;;;;;;17.80;8.38;;;;;;;;;;5021127;28;20041;-68
2023/03/03 13:33:50;;;;;;;17.63;8.52;;;;;;;;;;5030978;28;20465;-66
2023/03/03 13:36:16;;;;;;;16.80;8.02;;;;;;;;;;5026874;28;20393;-68
2023/03/03 13:38:47;;;;;;;14.75;7.82;;;;;;;;;;5030996;28;20093;-66
2023/03/03 13:41:38;;;;;;;15.35;8.15;;;;;;;;;;5023051;28;20033;-66
2023/03/03 13:44:08;;;;;;;;;;;;;;;;;;5029731;28;20041;-66
2023/03/03 13:46:39;;;;;;;15.47;7.97;;;;;;;;;;5031591;28;19917;-67
2023/03/03 13:49:28;;;;;;;16.73;8.43;;;;;;;;;;5030371;28;20024;-68
2023/03/03 13:52:05;;;;;;;16.98;8.32;;;;;;;;;;5030532;28;20072;-67
2023/03/03 13:54:49;;;;;;;15.35;8.35;;;;;;;;;;5028038;28;20465;-67
2023/03/03 13:57:43;;;;;;;16.20;8.60;;;;;;;;;;5030787;28;20085;-67
2023/03/03 14:00:15;;;;;;;15.77;8.27;;;;;;;;;;5028690;28;20030;-65
2023/03/03 14:02:56;;;;;;;15.80;8.60;;;;;;;;;;5031377;28;20037;-66
2023/03/03 14:05:35;;;;;;;16.95;9.10;;;;;;;;;;5023111;28;20063;-66
2023/03/03 14:08:30;;;;;;;15.35;8.63;;;;;;;;;;5030859;28;20109;-65
2023/03/03 14:11:30;;;;;;;16.35;8.55;;;;;;;;;;5031878;28;20501;-64
2023/03/03 14:13:58;;;;;;;15.27;8.45;;;;;;;;;;5022154;28;20065;-63
2023/03/03 14:16:48;;;;;;;16.08;8.88;;;;;;;;;;5029614;28;20037;-64
2023/03/03 14:19:22;;;;;;;16.25;8.35;;;;;;;;;;5027503;28;20082;-62
2023/03/03 14:22:06;;;;;;;15.57;8.63;;;;;;;;;;5012819;28;20034;-62
2023/03/03 14:25:06;;;;;;;16.75;8.88;;;;;;;;;;5014861;28;20076;-62
2023/03/03 14:27:39;;;;;;;16.05;8.77;;;;;;;;;;5023029;28;20036;-62
2023/03/03 14:30:31;;;;;;;15.75;8.45;;;;;;;;;;5037711;28;20377;-63
2023/03/03 14:33:08;;;;;;;15.00;8.75;;;;;;;;;;5033653;28;20064;-63
2023/03/03 14:35:48;;;;;;;15.95;9.00;;;;;;;;;;5023841;28;20033;-61
2023/03/03 14:38:18;;;;;;;16.30;8.65;;;;;;;;;;5012044;28;20460;-62
2023/03/03 14:40:45;;;;;;;15.55;9.10;;;;;;;;;;5030642;28;20120;-63
2023/03/03 14:43:35;;;;;;;18.17;9.05;;;;;;;;;;5032702;28;20517;-62
2023/03/03 14:46:26;;;;;;;16.15;8.77;;;;;;;;;;5025703;28;20485;-62
2023/03/03 14:48:55;;;;;;;;;;;;;;;;;;5033551;28;20100;-61
2023/03/03 14:51:43;;;;;;;18.23;8.43;;;;;;;;;;5034008;28;20360;-64
2023/03/03 14:54:33;;;;;;;15.45;8.70;;;;;;;;;;5025233;28;20029;-62
2023/03/03 14:57:20;;;;;;;17.20;8.82;;;;;;;;;;5035008;28;20095;-62
2023/03/03 14:59:58;;;;;;;14.70;8.50;;;;;;;;;;5034936;28;20083;-62